Time;durP1;ratioP1;P1;durP2;ratioP2;P2;SDS_P1;SDS_P2;PMS_P1;PMS_P2;Temp;Humidity;BMP_temperature;BMP_pressure;BME280_temperature;BME280_humidity;BME280_pressure;Samples;Min_cycle;Max_cycle;Signal;HPM_P1;HPM_P2
2021/07/17 14:10:09;;;;;;;9.37;8.67;;;36.30;98.90;;;;;;5851152;23;20404;-75
2021/07/17 14:12:38;;;;;;;9.50;8.73;;;36.60;97.20;;;;;;4900857;29;20481;-74
2021/07/17 14:15:06;;;;;;;9.10;8.40;;;36.80;97.00;;;;;;4900612;29;20548;-74
2021/07/17 14:17:33;;;;;;;8.43;7.70;;;37.10;96.60;;;;;;4900537;29;20465;-74
2021/07/17 14:20:00;;;;;;;8.20;7.50;;;37.20;93.70;;;;;;4900412;29;20463;-74
2021/07/17 14:22:29;;;;;;;8.43;7.73;;;36.90;94.50;;;;;;4901049;29;20462;-73
2021/07/17 14:24:55;;;;;;;9.10;8.40;;;36.90;94.00;;;;;;4899965;29;20473;-73
2021/07/17 14:27:23;;;;;;;8.40;7.60;;;36.90;93.90;;;;;;4900174;29;20482;-73
2021/07/17 14:29:50;;;;;;;8.30;7.70;;;37.00;93.60;;;;;;4900588;29;20477;-74
2021/07/17 14:32:18;;;;;;;9.20;8.47;;;37.20;92.50;;;;;;4900355;29;20470;-73
2021/07/17 14:34:46;;;;;;;9.23;8.43;;;37.30;93.50;;;;;;4900259;29;20918;-74
2021/07/17 14:37:13;;;;;;;8.27;7.67;;;37.50;91.50;;;;;;4900661;29;20946;-73
2021/07/17 14:39:39;;;;;;;8.50;7.90;;;37.70;90.70;;;;;;4900429;29;20463;-74
2021/07/17 14:42:06;;;;;;;7.70;7.00;;;37.70;91.00;;;;;;4899991;29;20517;-73
2021/07/17 14:44:34;;;;;;;8.40;7.63;;;37.80;88.70;;;;;;4900293;29;20548;-73
2021/07/17 14:47:01;;;;;;;8.37;7.60;;;37.70;85.40;;;;;;4901026;29;20509;-73
2021/07/17 14:49:28;;;;;;;8.13;7.53;;;37.40;86.60;;;;;;4901762;29;20462;-73
2021/07/17 14:51:55;;;;;;;8.27;7.67;;;37.30;88.40;;;;;;4900493;29;20473;-74
2021/07/17 14:54:22;;;;;;;7.87;7.27;;;37.30;85.80;;;;;;4899620;29;20927;-74
2021/07/17 14:56:51;;;;;;;8.57;7.87;;;37.40;87.00;;;;;;4900699;29;20474;-72
2021/07/17 14:59:18;;;;;;;7.80;7.20;;;37.60;89.10;;;;;;4900626;29;20902;-74
2021/07/17 15:01:46;;;;;;;8.30;7.60;;;37.90;85.20;;;;;;4901143;29;20522;-74
2021/07/17 15:04:13;;;;;;;7.70;7.00;;;38.00;83.80;;;;;;4900998;29;20462;-74
2021/07/17 15:06:39;;;;;;;7.30;6.80;;;38.00;83.80;;;;;;4900542;29;20498;-73
2021/07/17 15:09:06;;;;;;;7.97;7.37;;;38.00;83.10;;;;;;4900599;29;20470;-73
2021/07/17 15:11:33;;;;;;;9.23;8.47;;;37.80;83.10;;;;;;4904950;29;20496;-74
2021/07/17 15:13:59;;;;;;;8.07;7.40;;;37.80;84.10;;;;;;4906656;29;20803;-74
2021/07/17 15:16:26;;;;;;;7.50;6.80;;;37.80;84.10;;;;;;4904960;29;20558;-74
2021/07/17 15:18:54;;;;;;;11.60;7.87;;;37.60;83.90;;;;;;4904287;29;20466;-74
2021/07/17 15:21:21;;;;;;;8.03;7.43;;;37.40;83.90;;;;;;4903297;29;20933;-74
2021/07/17 15:23:48;;;;;;;8.57;7.77;;;37.20;85.80;;;;;;4903542;29;20818;-74
2021/07/17 15:26:18;;;;;;;7.90;7.30;;;36.80;86.70;;;;;;4903529;29;20473;-74
2021/07/17 15:28:44;;;;;;;9.90;7.87;;;36.30;87.10;;;;;;4903220;29;20486;-77
2021/07/17 15:31:11;;;;;;;8.97;8.27;;;35.90;88.50;;;;;;4903368;29;20473;-77
2021/07/17 15:33:38;;;;;;;9.17;8.37;;;35.30;89.90;;;;;;4903498;29;20466;-77
2021/07/17 15:36:06;;;;;;;9.03;8.23;;;34.90;91.00;;;;;;4903884;29;20473;-77
2021/07/17 15:38:34;;;;;;;7.93;7.23;;;34.40;92.00;;;;;;4904145;29;20467;-77
2021/07/17 15:41:01;;;;;;;8.90;8.20;;;34.00;92.30;;;;;;4903783;29;20462;-77
2021/07/17 15:43:28;;;;;;;9.13;8.43;;;33.50;92.90;;;;;;4903738;29;20465;-76
2021/07/17 15:45:55;;;;;;;8.10;7.50;;;33.10;93.70;;;;;;4903210;29;20944;-76
2021/07/17 15:48:21;;;;;;;7.77;7.07;;;32.70;94.10;;;;;;4903965;29;20492;-76
2021/07/17 15:50:48;;;;;;;9.77;8.03;;;32.30;96.00;;;;;;4904015;29;20480;-77
2021/07/17 15:53:16;;;;;;;8.43;7.13;;;32.00;97.30;;;;;;4903231;29;20462;-76
2021/07/17 15:55:43;;;;;;;9.03;8.07;;;31.80;99.30;;;;;;4902832;29;20458;-76
2021/07/17 15:58:09;;;;;;;8.83;7.93;;;31.70;99.90;;;;;;4902722;29;20467;-76
2021/07/17 16:00:40;;;;;;;8.17;7.50;;;31.50;99.90;;;;;;4903657;29;20462;-76
2021/07/17 16:03:07;;;;;;;10.90;8.00;;;31.40;99.90;;;;;;4904807;29;20529;-76
2021/07/17 16:05:34;;;;;;;8.60;7.80;;;31.20;99.90;;;;;;4903556;29;20496;-75
2021/07/17 16:08:01;;;;;;;8.30;7.60;;;31.10;99.90;;;;;;4903301;29;20486;-75
2021/07/17 16:10:29;;;;;;;9.03;8.20;;;31.10;99.90;;;;;;4902434;29;20481;-76
2021/07/17 16:12:58;;;;;;;8.53;7.70;;;31.00;99.90;;;;;;4902469;29;20887;-75
2021/07/17 16:15:25;;;;;;;8.13;7.43;;;30.90;99.90;;;;;;4902430;29;20469;-75
2021/07/17 16:17:51;;;;;;;8.17;7.37;;;30.90;99.90;;;;;;4902358;29;20953;-75
2021/07/17 16:20:18;;;;;;;9.63;7.70;;;30.90;99.90;;;;;;4901829;29;20473;-75
2021/07/17 16:22:45;;;;;;;8.13;7.43;;;31.00;99.90;;;;;;4901808;29;20473;-75
2021/07/17 16:25:12;;;;;;;8.47;7.70;;;30.90;99.90;;;;;;4902383;29;20522;-76
2021/07/17 16:27:42;;;;;;;8.30;7.43;;;30.90;99.90;;;;;;4902005;29;20988;-77
2021/07/17 16:30:12;;;;;;;7.67;6.93;;;31.00;99.90;;;;;;4902621;29;20502;-75
2021/07/17 16:32:39;;;;;;;8.10;7.40;;;31.20;99.90;;;;;;4902305;29;20809;-77
2021/07/17 16:35:08;;;;;;;9.37;7.00;;;31.60;99.90;;;;;;4902595;29;20469;-76
2021/07/17 16:37:35;;;;;;;8.60;7.70;;;31.70;99.90;;;;;;4902330;29;20803;-75
2021/07/17 16:40:02;;;;;;;8.80;8.00;;;32.00;99.90;;;;;;4902797;29;20790;-73
2021/07/17 16:42:29;;;;;;;8.60;7.80;;;32.00;99.90;;;;;;4902212;29;20468;-74
2021/07/17 16:44:57;;;;;;;9.47;8.50;;;32.00;99.90;;;;;;4903143;29;20521;-77
2021/07/17 16:47:24;;;;;;;8.30;7.50;;;32.00;99.90;;;;;;4902863;29;20472;-76
2021/07/17 16:49:50;;;;;;;8.00;6.80;;;32.20;99.90;;;;;;4902445;29;20472;-77
2021/07/17 16:52:17;;;;;;;8.70;7.90;;;32.40;99.90;;;;;;4902133;29;20865;-76
2021/07/17 16:54:44;;;;;;;7.80;7.13;;;32.60;99.90;;;;;;4902310;29;20468;-77
2021/07/17 16:57:14;;;;;;;7.33;6.70;;;32.80;99.90;;;;;;4902745;29;20795;-76
2021/07/17 16:59:40;;;;;;;7.37;6.77;;;33.10;99.90;;;;;;4902941;29;20561;-76
2021/07/17 17:02:14;;;;;;;6.83;6.27;;;33.20;99.90;;;;;;4901420;29;20462;-77
2021/07/17 17:04:41;;;;;;;5.23;4.83;;;33.30;99.90;;;;;;4902098;29;20450;-77
2021/07/17 17:07:07;;;;;;;5.20;4.80;;;33.20;99.90;;;;;;4902340;29;20768;-76
2021/07/17 17:09:34;;;;;;;5.80;5.30;;;32.90;99.90;;;;;;4901958;29;20501;-76
2021/07/17 17:12:01;;;;;;;5.00;4.60;;;32.80;99.90;;;;;;4901780;29;20550;-77
2021/07/17 17:14:28;;;;;;;5.00;4.60;;;32.40;99.90;;;;;;4901942;29;20505;-77
2021/07/17 17:16:57;;;;;;;5.30;4.90;;;32.00;99.90;;;;;;4902724;29;20463;-77
2021/07/17 17:19:25;;;;;;;6.30;5.40;;;31.50;99.90;;;;;;4901779;29;20469;-77
2021/07/17 17:21:51;;;;;;;5.13;4.73;;;31.10;99.90;;;;;;4901707;29;20466;-77
2021/07/17 17:24:18;;;;;;;4.57;4.27;;;30.80;99.90;;;;;;4901546;29;20474;-78
2021/07/17 17:26:45;;;;;;;5.17;4.70;;;30.50;99.90;;;;;;4901780;29;20467;-75
2021/07/17 17:29:12;;;;;;;5.07;4.60;;;30.20;99.90;;;;;;4901678;29;20497;-76
2021/07/17 17:31:40;;;;;;;5.17;4.67;;;30.00;99.90;;;;;;4902053;29;20473;-77
2021/07/17 17:34:07;;;;;;;5.43;4.97;;;29.70;99.90;;;;;;4901414;29;20943;-78
2021/07/17 17:36:36;;;;;;;4.90;4.50;;;29.60;99.90;;;;;;4902222;29;20470;-77
2021/07/17 17:39:04;;;;;;;5.30;4.33;;;29.40;99.90;;;;;;4901556;29;20847;-76
2021/07/17 17:41:30;;;;;;;4.90;4.50;;;29.30;99.90;;;;;;4901175;29;20534;-76
2021/07/17 17:43:59;;;;;;;5.70;4.20;;;29.10;99.90;;;;;;4901448;29;20530;-77
2021/07/17 17:46:25;;;;;;;11.30;4.27;;;29.00;99.90;;;;;;4901374;29;20780;-77
2021/07/17 17:48:52;;;;;;;4.30;3.60;;;28.80;99.90;;;;;;4900832;29;20497;-77
2021/07/17 17:51:19;;;;;;;3.47;3.17;;;28.60;99.90;;;;;;4901244;29;20470;-77
2021/07/17 17:53:47;;;;;;;5.13;3.13;;;28.50;99.90;;;;;;4901122;29;20473;-77
2021/07/17 17:56:14;;;;;;;4.17;3.00;;;28.40;99.90;;;;;;4901980;29;20577;-74
2021/07/17 17:58:41;;;;;;;8.37;3.10;;;28.30;99.90;;;;;;4900968;29;20458;-75
2021/07/17 18:01:07;;;;;;;4.40;3.13;;;28.20;99.90;;;;;;4900932;29;20474;-75
2021/07/17 18:03:34;;;;;;;2.90;2.60;;;28.10;99.90;;;;;;4900456;29;20823;-74
2021/07/17 18:06:01;;;;;;;2.90;2.60;;;28.10;99.90;;;;;;4901043;29;20458;-74
2021/07/17 18:08:28;;;;;;;4.97;2.70;;;28.00;99.90;;;;;;4901798;29;20946;-75
2021/07/17 18:10:56;;;;;;;4.57;2.53;;;27.90;99.90;;;;;;4900545;29;20494;-75
2021/07/17 18:13:23;;;;;;;2.13;1.90;;;27.80;99.90;;;;;;4900275;29;20502;-74
2021/07/17 18:15:51;;;;;;;5.73;2.30;;;27.80;99.90;;;;;;4900903;29;20973;-75
2021/07/17 18:18:18;;;;;;;4.47;2.67;;;27.70;99.90;;;;;;4900335;29;20462;-74
2021/07/17 18:20:45;;;;;;;3.67;2.50;;;27.60;99.90;;;;;;4901118;29;20466;-74
2021/07/17 18:23:12;;;;;;;4.03;1.80;;;27.60;99.90;;;;;;4900434;29;20470;-73
2021/07/17 18:25:39;;;;;;;4.40;2.40;;;27.50;99.90;;;;;;4900566;29;20462;-75
2021/07/17 18:28:08;;;;;;;2.20;2.00;;;27.30;99.90;;;;;;4900544;29;20896;-75
2021/07/17 18:30:35;;;;;;;4.20;2.07;;;27.30;99.90;;;;;;4900220;29;20494;-75
2021/07/17 18:33:10;;;;;;;4.60;2.33;;;27.20;99.90;;;;;;4900449;29;20462;-74
2021/07/17 18:35:37;;;;;;;7.10;2.07;;;27.10;99.90;;;;;;4900630;29;20446;-75
2021/07/17 18:38:04;;;;;;;3.10;2.13;;;27.00;99.90;;;;;;4900278;29;20462;-74
2021/07/17 18:40:32;;;;;;;3.67;2.20;;;27.00;99.90;;;;;;4899946;29;20473;-74
2021/07/17 18:42:59;;;;;;;4.37;3.00;;;27.00;99.90;;;;;;4900111;29;20466;-74
2021/07/17 18:45:30;;;;;;;2.43;2.10;;;26.90;99.90;;;;;;4899492;29;20931;-75
2021/07/17 18:48:00;;;;;;;2.80;2.50;;;26.80;99.90;;;;;;4900598;29;20907;-76
2021/07/17 18:50:27;;;;;;;3.83;2.03;;;26.70;99.90;;;;;;4900442;29;20466;-76
2021/07/17 18:52:57;;;;;;;3.93;2.70;;;26.70;99.90;;;;;;4900503;29;20561;-76
2021/07/17 18:55:24;;;;;;;5.97;2.33;;;26.60;99.90;;;;;;4900448;29;20473;-76
2021/07/17 18:57:51;;;;;;;3.70;2.33;;;26.50;99.90;;;;;;4900810;29;20533;-76
2021/07/17 19:00:20;;;;;;;2.70;1.90;;;26.40;99.90;;;;;;4900954;29;20466;-76
2021/07/17 19:02:50;;;;;;;3.10;2.10;;;26.30;99.90;;;;;;4899869;29;20473;-76
2021/07/17 19:05:17;;;;;;;3.23;2.20;;;26.20;99.90;;;;;;4901166;29;20476;-77
2021/07/17 19:07:44;;;;;;;5.20;2.13;;;26.10;99.90;;;;;;4900330;29;20473;-77
2021/07/17 19:10:12;;;;;;;5.70;2.30;;;26.00;99.90;;;;;;4900667;29;20494;-77
2021/07/17 19:12:39;;;;;;;4.87;2.47;;;25.90;99.90;;;;;;4901378;29;20455;-76
2021/07/17 19:15:11;;;;;;;5.17;2.20;;;25.80;99.90;;;;;;4900102;29;20798;-76
2021/07/17 19:17:40;;;;;;;3.20;2.40;;;25.70;99.90;;;;;;4901079;29;20442;-77
2021/07/17 19:20:11;;;;;;;5.03;2.37;;;25.70;99.90;;;;;;4899817;29;20489;-76
2021/07/17 19:22:39;;;;;;;3.50;2.30;;;25.60;99.90;;;;;;4900217;29;20570;-76
2021/07/17 19:25:09;;;;;;;4.60;2.40;;;25.50;99.90;;;;;;4901942;29;20537;-76
2021/07/17 19:27:36;;;;;;;3.40;2.37;;;25.50;99.90;;;;;;4901083;29;20490;-77
2021/07/17 19:30:04;;;;;;;4.00;2.20;;;25.40;99.90;;;;;;4900510;29;20821;-76
2021/07/17 19:32:30;;;;;;;3.90;2.63;;;25.30;99.90;;;;;;4900071;29;20466;-76
2021/07/17 19:34:57;;;;;;;4.80;2.30;;;25.30;99.90;;;;;;4900880;29;20526;-76
2021/07/17 19:37:26;;;;;;;3.53;2.50;;;25.20;99.90;;;;;;4900659;29;20462;-76
2021/07/17 19:39:53;;;;;;;4.73;2.53;;;25.10;99.90;;;;;;4901156;29;20497;-75
2021/07/17 19:42:19;;;;;;;3.97;2.33;;;25.00;99.90;;;;;;4903238;29;20480;-76
2021/07/17 19:44:46;;;;;;;6.50;2.23;;;25.00;99.90;;;;;;4901303;29;20462;-75
2021/07/17 19:47:13;;;;;;;2.87;2.57;;;24.90;99.90;;;;;;4900989;29;20462;-77
2021/07/17 19:49:40;;;;;;;7.07;3.47;;;24.80;99.90;;;;;;4900089;29;20508;-77
2021/07/17 19:52:07;;;;;;;5.60;3.13;;;24.70;99.90;;;;;;4901807;29;20477;-76
2021/07/17 19:54:38;;;;;;;7.77;3.17;;;24.70;99.90;;;;;;4902296;29;20474;-75
2021/07/17 19:57:05;;;;;;;3.57;2.50;;;24.60;99.90;;;;;;4902989;29;20556;-75
2021/07/17 19:59:33;;;;;;;6.07;2.60;;;24.50;99.90;;;;;;4903780;29;20461;-76
2021/07/17 20:02:00;;;;;;;3.20;2.37;;;24.50;99.90;;;;;;4906106;29;20466;-76
2021/07/17 20:04:27;;;;;;;3.50;2.93;;;24.40;99.90;;;;;;4906783;29;20509;-76
2021/07/17 20:06:54;;;;;;;5.50;2.60;;;24.40;99.90;;;;;;4905227;29;20532;-76
2021/07/17 20:09:21;;;;;;;4.73;2.73;;;24.40;99.90;;;;;;4903347;29;20494;-76
2021/07/17 20:11:50;;;;;;;5.10;2.60;;;24.30;99.90;;;;;;4902999;29;20815;-76
2021/07/17 20:14:16;;;;;;;4.57;2.07;;;24.30;99.90;;;;;;4903579;29;20801;-76
2021/07/17 20:16:43;;;;;;;3.87;2.27;;;24.20;99.90;;;;;;4904778;29;20470;-76
2021/07/17 20:19:10;;;;;;;6.67;2.80;;;24.20;99.90;;;;;;4903897;29;20469;-76
2021/07/17 20:21:37;;;;;;;3.43;2.30;;;24.10;99.90;;;;;;4903253;29;20462;-76
2021/07/17 20:24:03;;;;;;;4.60;3.13;;;24.00;99.90;;;;;;4903708;29;20462;-76
2021/07/17 20:26:30;;;;;;;5.33;3.47;;;24.00;99.90;;;;;;4903784;29;20463;-76
2021/07/17 20:28:59;;;;;;;4.90;2.60;;;23.90;99.90;;;;;;4903516;29;20501;-76
2021/07/17 20:31:25;;;;;;;4.73;3.40;;;23.90;99.90;;;;;;4904823;29;20466;-77
2021/07/17 20:33:52;;;;;;;6.53;2.80;;;23.80;99.90;;;;;;4905081;29;20942;-77
2021/07/17 20:36:19;;;;;;;9.53;7.57;;;23.80;99.90;;;;;;4905634;29;20474;-77
2021/07/17 20:38:46;;;;;;;4.13;3.50;;;23.80;99.90;;;;;;4904763;29;20481;-77
2021/07/17 20:41:15;;;;;;;5.33;2.83;;;23.70;99.90;;;;;;4904737;29;20462;-76
2021/07/17 20:43:42;;;;;;;5.97;3.00;;;23.70;99.90;;;;;;4904900;29;20466;-77
2021/07/17 20:46:12;;;;;;;4.40;2.97;;;23.60;99.90;;;;;;4906368;29;20462;-76
2021/07/17 20:48:38;;;;;;;5.87;3.40;;;23.60;99.90;;;;;;4903881;29;20462;-76
2021/07/17 20:51:05;;;;;;;3.73;2.60;;;23.60;99.90;;;;;;4904418;29;20477;-77
2021/07/17 20:53:33;;;;;;;5.83;3.27;;;23.50;99.90;;;;;;4904018;29;20529;-77
2021/07/17 20:56:02;;;;;;;4.63;3.27;;;23.50;99.90;;;;;;4905876;29;20470;-77
2021/07/17 20:58:29;;;;;;;6.33;3.37;;;23.50;99.90;;;;;;4904902;29;20454;-76
2021/07/17 21:00:56;;;;;;;5.00;3.57;;;23.40;99.90;;;;;;4903846;29;20490;-76
2021/07/17 21:03:25;;;;;;;5.47;3.23;;;23.40;99.90;;;;;;4903917;29;20466;-77
2021/07/17 21:05:51;;;;;;;5.43;3.87;;;23.40;99.90;;;;;;4903788;29;20462;-77
2021/07/17 21:08:18;;;;;;;6.23;3.17;;;23.30;99.90;;;;;;4902868;29;20927;-77
2021/07/17 21:10:45;;;;;;;7.73;3.33;;;23.20;99.90;;;;;;4903280;29;20494;-77
2021/07/17 21:13:12;;;;;;;6.87;3.77;;;23.20;99.90;;;;;;4902981;29;20470;-77
2021/07/17 21:15:40;;;;;;;13.93;9.73;;;23.20;99.90;;;;;;4904325;29;20462;-77
2021/07/17 21:18:07;;;;;;;7.70;4.00;;;23.10;99.90;;;;;;4906777;29;20473;-77
2021/07/17 21:20:35;;;;;;;5.00;3.10;;;23.10;99.90;;;;;;4909349;29;20459;-77
2021/07/17 21:23:02;;;;;;;6.90;4.90;;;23.10;99.90;;;;;;4906590;29;20466;-76
2021/07/17 21:25:29;;;;;;;6.43;3.13;;;23.00;99.90;;;;;;4904911;29;20462;-77
2021/07/17 21:27:55;;;;;;;6.60;3.20;;;23.00;99.90;;;;;;4906791;29;20525;-77
2021/07/17 21:30:22;;;;;;;5.10;3.43;;;23.00;99.90;;;;;;4908503;29;20482;-76
2021/07/17 21:32:49;;;;;;;6.57;3.53;;;22.90;99.90;;;;;;4903061;29;20473;-75
2021/07/17 21:35:16;;;;;;;5.93;3.77;;;22.90;99.90;;;;;;4902372;29;20813;-75
2021/07/17 21:37:46;;;;;;;7.27;4.90;;;22.90;99.90;;;;;;4903587;29;20462;-74
2021/07/17 21:40:14;;;;;;;10.67;4.13;;;22.80;99.90;;;;;;4902333;29;20454;-74
2021/07/17 21:42:40;;;;;;;8.40;3.53;;;22.80;99.90;;;;;;4902580;29;20959;-74
2021/07/17 21:45:09;;;;;;;7.57;3.87;;;22.80;99.90;;;;;;4901731;29;20477;-74
2021/07/17 21:47:38;;;;;;;5.00;3.30;;;22.70;99.90;;;;;;4902352;29;20849;-74
2021/07/17 21:50:07;;;;;;;6.73;3.50;;;22.70;99.90;;;;;;4901649;29;20493;-75
2021/07/17 21:52:33;;;;;;;6.77;3.17;;;22.70;99.90;;;;;;4902030;29;20483;-74
2021/07/17 21:55:04;;;;;;;3.87;3.47;;;22.70;99.90;;;;;;4902003;29;20462;-77
2021/07/17 21:57:31;;;;;;;5.23;3.63;;;22.70;99.90;;;;;;4901566;29;20442;-76
2021/07/17 21:59:57;;;;;;;6.83;3.50;;;22.60;99.90;;;;;;4902592;29;20470;-77
2021/07/17 22:02:24;;;;;;;5.47;4.00;;;22.60;99.90;;;;;;4901175;29;20473;-78
2021/07/17 22:04:51;;;;;;;5.47;3.70;;;22.60;99.90;;;;;;4900943;29;20462;-77
2021/07/17 22:07:18;;;;;;;8.27;3.70;;;22.60;99.90;;;;;;4902012;29;20775;-77
2021/07/17 22:09:45;;;;;;;5.60;3.93;;;22.60;99.90;;;;;;4901019;29;20490;-78
2021/07/17 22:12:13;;;;;;;9.47;4.23;;;22.60;99.90;;;;;;4900285;29;20486;-77
2021/07/17 22:14:40;;;;;;;6.30;4.33;;;22.60;99.90;;;;;;4901089;29;20463;-78
2021/07/17 22:17:07;;;;;;;8.83;4.07;;;22.60;99.90;;;;;;4901118;29;20462;-77
2021/07/17 22:19:33;;;;;;;6.80;4.27;;;22.60;99.90;;;;;;4900271;29;20462;-78
2021/07/17 22:22:01;;;;;;;5.67;3.60;;;22.60;99.90;;;;;;4901064;29;20471;-77
2021/07/17 22:24:29;;;;;;;5.97;3.90;;;22.60;99.90;;;;;;4900939;29;20462;-77
2021/07/17 22:26:55;;;;;;;6.43;3.77;;;22.60;99.90;;;;;;4901114;29;20566;-78
2021/07/17 22:29:23;;;;;;;4.90;3.73;;;22.50;99.90;;;;;;4900565;29;20497;-77
2021/07/17 22:31:50;;;;;;;5.10;3.40;;;22.50;99.90;;;;;;4902061;29;20467;-77
2021/07/17 22:34:17;;;;;;;6.47;4.00;;;22.40;99.90;;;;;;4901340;29;20466;-77
2021/07/17 22:36:44;;;;;;;4.87;3.90;;;22.40;99.90;;;;;;4900542;29;20478;-77
2021/07/17 22:39:10;;;;;;;8.27;3.90;;;22.40;99.90;;;;;;4900707;29;20489;-77
2021/07/17 22:41:37;;;;;;;4.73;3.47;;;22.30;99.90;;;;;;4900940;29;20554;-77
2021/07/17 22:44:04;;;;;;;4.67;3.70;;;22.30;99.90;;;;;;4900805;29;20803;-77
2021/07/17 22:46:32;;;;;;;6.10;4.13;;;22.20;99.90;;;;;;4900211;29;20835;-77
2021/07/17 22:48:59;;;;;;;3.83;3.43;;;22.10;99.90;;;;;;4900677;29;20800;-77
2021/07/17 22:51:26;;;;;;;6.03;3.50;;;22.10;99.90;;;;;;4900301;29;20470;-77
2021/07/17 22:53:53;;;;;;;4.57;3.53;;;22.00;99.90;;;;;;4900044;29;20462;-77
2021/07/17 22:56:20;;;;;;;7.97;3.57;;;22.00;99.90;;;;;;4900217;29;20563;-79
2021/07/17 22:58:47;;;;;;;5.90;4.13;;;21.90;99.90;;;;;;4900426;29;20469;-77
2021/07/17 23:01:14;;;;;;;4.30;3.57;;;21.80;99.90;;;;;;4900222;29;20788;-76
2021/07/17 23:03:42;;;;;;;4.70;3.50;;;21.80;99.90;;;;;;4900227;29;20466;-76
2021/07/17 23:06:10;;;;;;;5.93;4.17;;;21.80;99.90;;;;;;4900489;29;20465;-77
2021/07/17 23:08:37;;;;;;;4.80;3.20;;;21.70;99.90;;;;;;4900700;29;20462;-77
2021/07/17 23:11:03;;;;;;;4.93;3.10;;;21.70;99.90;;;;;;4899615;29;20501;-77
2021/07/17 23:13:34;;;;;;;5.00;3.07;;;21.70;99.90;;;;;;4900204;29;20481;-76
2021/07/17 23:16:01;;;;;;;4.40;3.63;;;21.70;99.90;;;;;;4900545;29;20477;-77
2021/07/17 23:18:28;;;;;;;5.53;4.10;;;21.60;99.90;;;;;;4899795;29;20957;-77
2021/07/17 23:20:56;;;;;;;4.37;3.20;;;21.60;99.90;;;;;;4900485;29;20454;-77
2021/07/17 23:23:22;;;;;;;3.37;3.00;;;21.60;99.90;;;;;;4900176;29;20466;-77
2021/07/17 23:25:49;;;;;;;5.80;3.80;;;21.50;99.90;;;;;;4900331;29;20466;-77
2021/07/17 23:28:16;;;;;;;7.73;3.77;;;21.50;99.90;;;;;;4900577;29;20506;-78
2021/07/17 23:30:43;;;;;;;5.00;3.50;;;21.40;99.90;;;;;;4902423;29;20497;-77
2021/07/17 23:33:10;;;;;;;5.97;3.40;;;21.40;99.90;;;;;;4904063;29;20478;-77
2021/07/17 23:35:42;;;;;;;4.83;2.90;;;21.40;99.90;;;;;;4903848;29;20465;-76
2021/07/17 23:38:11;;;;;;;4.90;3.23;;;21.30;99.90;;;;;;4904072;29;20459;-77
2021/07/17 23:40:37;;;;;;;4.07;2.97;;;21.30;99.90;;;;;;4904451;29;20517;-76
2021/07/17 23:43:04;;;;;;;3.90;3.50;;;21.20;99.90;;;;;;4903673;29;20466;-77
2021/07/17 23:45:32;;;;;;;7.77;3.30;;;21.20;99.90;;;;;;4903648;29;20839;-77
2021/07/17 23:47:58;;;;;;;4.63;2.87;;;21.20;99.90;;;;;;4903491;29;20498;-77
2021/07/17 23:50:25;;;;;;;4.80;3.37;;;21.10;99.90;;;;;;4903371;29;20526;-77
2021/07/17 23:52:52;;;;;;;4.10;3.70;;;21.10;99.90;;;;;;4903382;29;20470;-77
2021/07/17 23:55:22;;;;;;;4.10;3.17;;;21.00;99.90;;;;;;4903551;29;20493;-76
2021/07/17 23:57:49;;;;;;;7.20;3.10;;;21.00;99.90;;;;;;4903509;29;20947;-77
